createdAt,value
2018-12-17T00:00:45.494Z,14.53
2018-12-17T00:03:14.762Z,14.38
2018-12-17T00:05:48.245Z,14.38
2018-12-17T00:08:17.601Z,13.50
2018-12-17T00:10:46.867Z,14.68
2018-12-17T00:13:16.108Z,16.15
2018-12-17T00:15:45.467Z,14.83
2018-12-17T00:18:14.767Z,15.20
2018-12-17T00:20:43.943Z,14.38
2018-12-17T00:23:13.154Z,16.27
2018-12-17T00:25:42.321Z,14.83
2018-12-17T00:28:11.531Z,15.18
2018-12-17T00:30:40.695Z,15.95
2018-12-17T00:33:09.886Z,14.90
2018-12-17T00:35:39.104Z,15.88
2018-12-17T00:38:08.294Z,14.70
2018-12-17T00:40:37.624Z,15.70
2018-12-17T00:43:10.518Z,15.55
2018-12-17T00:45:39.683Z,13.30
2018-12-17T00:48:08.910Z,11.85
2018-12-17T00:50:38.103Z,10.05
2018-12-17T00:53:07.314Z,10.23
2018-12-17T00:55:36.518Z,9.85
2018-12-17T00:58:05.921Z,11.45
2018-12-17T01:00:35.180Z,9.93
2018-12-17T01:03:05.855Z,10.30
2018-12-17T01:05:35.126Z,10.70
2018-12-17T01:08:04.514Z,9.05
2018-12-17T01:10:33.722Z,8.63
2018-12-17T01:13:02.935Z,10.58
2018-12-17T01:15:38.726Z,10.10
2018-12-17T01:18:08.149Z,9.90
2018-12-17T01:20:37.322Z,10.15
2018-12-17T01:23:06.542Z,9.93
2018-12-17T01:25:36.411Z,11.88
2018-12-17T01:28:05.598Z,10.55
2018-12-17T01:30:34.778Z,11.30
2018-12-17T01:33:03.963Z,11.30
2018-12-17T01:35:33.850Z,11.57
2018-12-17T01:38:03.054Z,11.60
2018-12-17T01:40:32.263Z,6.10
2018-12-17T01:43:05.794Z,11.63
2018-12-17T01:45:34.963Z,12.63
2018-12-17T01:48:04.242Z,11.90
2018-12-17T01:50:33.437Z,12.03
2018-12-17T01:53:02.631Z,11.78
2018-12-17T01:55:31.794Z,11.65
2018-12-17T01:58:01.077Z,11.85
2018-12-17T02:00:30.421Z,11.40
2018-12-17T02:02:59.843Z,12.47
2018-12-17T02:05:29.019Z,10.45
2018-12-17T02:07:58.282Z,10.28
2018-12-17T02:10:27.449Z,11.65
2018-12-17T02:12:57.695Z,10.50
2018-12-17T02:15:26.876Z,10.88
2018-12-17T02:17:56.091Z,11.18
2018-12-17T02:20:25.271Z,10.75
2018-12-17T02:22:54.455Z,10.78
2018-12-17T02:25:23.618Z,11.55
2018-12-17T02:27:52.806Z,10.40
2018-12-17T02:30:21.974Z,10.40
2018-12-17T02:32:51.176Z,9.33
2018-12-17T02:35:20.353Z,9.38
2018-12-17T02:37:49.548Z,11.15
2018-12-17T02:40:18.740Z,10.15
2018-12-17T02:42:47.917Z,10.13
2018-12-17T02:45:17.288Z,10.03
2018-12-17T02:47:46.466Z,9.33
2018-12-17T02:50:15.703Z,9.73
2018-12-17T02:52:44.895Z,10.00
2018-12-17T02:55:14.073Z,10.43
2018-12-17T02:57:43.259Z,10.32
2018-12-17T03:00:12.895Z,9.63
2018-12-17T03:02:42.084Z,10.20
2018-12-17T03:05:11.610Z,11.63
2018-12-17T03:07:40.903Z,10.30
2018-12-17T03:10:16.911Z,10.25
2018-12-17T03:12:46.202Z,11.00
2018-12-17T03:15:15.360Z,10.43
2018-12-17T03:17:44.730Z,9.90
2018-12-17T03:20:14.937Z,9.88
2018-12-17T03:22:44.118Z,9.78
2018-12-17T03:25:13.283Z,9.98
2018-12-17T03:27:42.478Z,9.75
2018-12-17T03:30:11.824Z,10.63
2018-12-17T03:32:41.119Z,9.43
2018-12-17T03:35:10.294Z,9.73
2018-12-17T03:37:39.486Z,10.10
2018-12-17T03:40:09.003Z,9.63
2018-12-17T03:42:38.196Z,9.03
2018-12-17T03:45:07.647Z,9.93
2018-12-17T03:47:36.850Z,9.60
2018-12-17T03:50:07.443Z,10.25
2018-12-17T03:52:36.646Z,10.43
2018-12-17T03:55:06.366Z,9.68
2018-12-17T03:57:35.539Z,9.75
2018-12-17T04:00:06.223Z,10.25
2018-12-17T04:02:35.478Z,11.28
2018-12-17T04:05:05.510Z,9.75
2018-12-17T04:07:34.819Z,10.18
2018-12-17T04:10:04.845Z,9.15
2018-12-17T04:12:34.023Z,9.53
2018-12-17T04:15:03.295Z,9.45
2018-12-17T04:17:39.210Z,9.43
2018-12-17T04:20:08.667Z,9.63
2018-12-17T04:22:37.890Z,9.85
2018-12-17T04:25:07.362Z,9.08
2018-12-17T04:27:36.535Z,9.13
2018-12-17T04:30:06.399Z,9.58
2018-12-17T04:32:35.572Z,8.98
2018-12-17T04:35:07.994Z,9.48
2018-12-17T04:37:37.162Z,9.53
2018-12-17T04:40:07.035Z,9.35
2018-12-17T04:42:36.261Z,9.75
2018-12-17T04:45:05.911Z,10.18
2018-12-17T04:47:35.066Z,9.30
2018-12-17T04:50:04.805Z,9.15
2018-12-17T04:52:33.955Z,8.60
2018-12-17T04:55:08.994Z,8.65
2018-12-17T04:57:38.475Z,9.60
2018-12-17T05:00:09.511Z,9.48
2018-12-17T05:02:38.799Z,9.20
2018-12-17T05:05:08.250Z,9.38
2018-12-17T05:07:37.478Z,8.28
2018-12-17T05:10:07.831Z,8.50
2018-12-17T05:12:37.022Z,7.92
2018-12-17T05:15:06.754Z,8.38
2018-12-17T05:17:35.930Z,8.10
2018-12-17T05:20:07.390Z,8.20
2018-12-17T05:22:36.558Z,7.33
2018-12-17T05:25:07.029Z,7.20
2018-12-17T05:27:36.391Z,8.75
2018-12-17T05:30:07.418Z,7.40
2018-12-17T05:32:36.584Z,7.78
2018-12-17T05:35:06.299Z,7.83
2018-12-17T05:37:35.554Z,7.10
2018-12-17T05:40:05.938Z,7.03
2018-12-17T05:42:35.198Z,6.90
2018-12-17T05:45:05.356Z,7.05
2018-12-17T05:47:34.524Z,5.75
2018-12-17T05:50:04.066Z,5.80
2018-12-17T05:52:33.238Z,5.95
2018-12-17T05:55:02.418Z,6.47
2018-12-17T05:57:31.585Z,7.42
2018-12-17T06:00:00.770Z,6.12
2018-12-17T06:02:29.927Z,4.45
2018-12-17T06:04:59.095Z,4.67
2018-12-17T06:07:28.246Z,4.15
2018-12-17T06:09:57.430Z,5.40
2018-12-17T06:12:26.612Z,5.50
2018-12-17T06:14:55.798Z,5.12
2018-12-17T06:17:24.954Z,4.17
2018-12-17T06:19:54.303Z,5.50
2018-12-17T06:22:23.469Z,5.37
2018-12-17T06:24:52.673Z,5.90
2018-12-17T06:27:21.842Z,5.37
2018-12-17T06:29:51.043Z,4.80
2018-12-17T06:32:20.253Z,5.05
2018-12-17T06:34:49.491Z,5.40
2018-12-17T06:37:18.670Z,5.97
2018-12-17T06:39:47.962Z,5.90
2018-12-17T06:42:17.183Z,6.42
2018-12-17T06:44:46.467Z,7.15
2018-12-17T06:47:15.687Z,6.75
2018-12-17T06:49:44.905Z,7.30
2018-12-17T06:52:14.123Z,6.22
2018-12-17T06:54:43.335Z,5.75
2018-12-17T06:57:12.584Z,5.53
2018-12-17T06:59:42.863Z,5.35
2018-12-17T07:02:13.715Z,6.33
2018-12-17T07:04:42.944Z,7.17
2018-12-17T07:07:12.112Z,6.55
2018-12-17T07:09:41.314Z,5.58
2018-12-17T07:12:10.491Z,5.55
2018-12-17T07:14:39.736Z,5.15
2018-12-17T07:17:09.028Z,4.97
2018-12-17T07:19:38.235Z,5.45
2018-12-17T07:22:07.433Z,4.95
2018-12-17T07:24:36.638Z,5.25
2018-12-17T07:27:05.943Z,5.00
2018-12-17T07:29:35.266Z,4.72
2018-12-17T07:32:04.640Z,4.25
2018-12-17T07:34:33.939Z,4.22
2018-12-17T07:37:03.134Z,4.65
2018-12-17T07:39:32.963Z,5.25
2018-12-17T07:42:02.151Z,4.50
2018-12-17T07:44:31.359Z,4.72
2018-12-17T07:47:00.572Z,5.15
2018-12-17T07:49:29.755Z,4.75
2018-12-17T07:51:58.927Z,4.08
2018-12-17T07:54:28.127Z,4.35
2018-12-17T07:56:57.353Z,4.92
2018-12-17T07:59:26.659Z,5.17
2018-12-17T08:01:55.908Z,5.22
2018-12-17T08:04:27.143Z,6.25
2018-12-17T08:06:56.432Z,5.12
2018-12-17T08:09:25.696Z,5.03
2018-12-17T08:11:54.927Z,4.95
2018-12-17T08:14:24.183Z,5.10
2018-12-17T08:16:54.016Z,4.92
2018-12-17T08:19:23.195Z,5.42
2018-12-17T08:21:52.531Z,4.90
2018-12-17T08:24:21.740Z,5.12
2018-12-17T08:26:52.164Z,5.28
2018-12-17T08:29:21.376Z,5.10
2018-12-17T08:31:50.590Z,4.80
2018-12-17T08:34:19.899Z,5.30
2018-12-17T08:36:49.107Z,5.22
2018-12-17T08:39:18.284Z,5.03
2018-12-17T08:41:47.525Z,6.40
2018-12-17T08:44:20.075Z,7.90
2018-12-17T08:46:50.302Z,6.25
2018-12-17T08:49:19.474Z,4.87
2018-12-17T08:51:48.655Z,4.62
2018-12-17T08:54:17.840Z,3.50
2018-12-17T08:56:47.070Z,2.72
2018-12-17T08:59:16.243Z,3.30
2018-12-17T09:01:45.506Z,3.62
2018-12-17T09:04:14.670Z,3.58
2018-12-17T09:06:43.876Z,5.25
2018-12-17T09:09:13.044Z,3.90
2018-12-17T09:11:42.234Z,5.17
2018-12-17T09:14:11.448Z,5.05
2018-12-17T09:16:41.906Z,3.60
2018-12-17T09:19:11.776Z,3.67
2018-12-17T09:21:41.159Z,4.70
2018-12-17T09:24:10.503Z,3.55
2018-12-17T09:26:39.810Z,4.35
2018-12-17T09:29:09.081Z,7.55
2018-12-17T09:31:38.894Z,4.42
2018-12-17T09:34:08.168Z,5.55
2018-12-17T09:36:42.084Z,3.20
2018-12-17T09:39:11.262Z,3.47
2018-12-17T09:41:40.483Z,3.72
2018-12-17T09:44:09.727Z,3.67
2018-12-17T09:46:39.252Z,3.80
2018-12-17T09:49:08.449Z,4.22
2018-12-17T09:51:37.641Z,3.98
2018-12-17T09:54:06.846Z,3.60
2018-12-17T09:56:36.142Z,4.35
2018-12-17T09:59:05.535Z,4.20
2018-12-17T10:01:34.771Z,3.98
2018-12-17T10:04:03.948Z,3.42
2018-12-17T10:06:33.761Z,3.33
2018-12-17T10:09:02.955Z,3.40
2018-12-17T10:11:32.162Z,3.22
2018-12-17T10:14:01.359Z,2.80
2018-12-17T10:16:31.323Z,2.58
2018-12-17T10:19:00.618Z,2.92
2018-12-17T10:21:29.822Z,2.77
2018-12-17T10:23:59.099Z,3.08
2018-12-17T10:26:28.460Z,2.95
2018-12-17T10:28:57.660Z,3.02
2018-12-17T10:31:26.872Z,2.77
2018-12-17T10:33:57.117Z,2.75
2018-12-17T10:36:26.316Z,3.15
2018-12-17T10:38:55.497Z,2.50
2018-12-17T10:41:24.690Z,3.00
2018-12-17T10:43:53.863Z,3.65
2018-12-17T10:46:23.152Z,2.92
2018-12-17T10:48:52.336Z,4.17
2018-12-17T10:51:21.543Z,3.35
2018-12-17T10:53:51.714Z,3.12
2018-12-17T10:56:20.906Z,3.55
2018-12-17T10:58:50.101Z,3.12
2018-12-17T11:01:24.550Z,2.45
2018-12-17T11:03:58.063Z,3.27
2018-12-17T11:06:27.678Z,3.22
2018-12-17T11:08:56.986Z,3.42
2018-12-17T11:11:26.268Z,3.12
2018-12-17T11:13:55.455Z,3.25
2018-12-17T11:16:30.755Z,3.80
2018-12-17T11:19:00.054Z,3.87
2018-12-17T11:21:29.337Z,3.60
2018-12-17T11:23:58.499Z,5.15
2018-12-17T11:26:27.685Z,3.70
2018-12-17T11:28:56.855Z,3.15
2018-12-17T11:31:26.105Z,3.17
2018-12-17T11:33:55.520Z,3.02
2018-12-17T11:36:26.923Z,3.02
2018-12-17T11:38:57.234Z,2.67
2018-12-17T11:41:26.590Z,3.47
2018-12-17T11:43:55.755Z,3.00
2018-12-17T11:46:24.940Z,2.52
2018-12-17T11:48:54.188Z,2.80
2018-12-17T11:51:23.455Z,2.50
2018-12-17T11:53:52.627Z,3.12
2018-12-17T11:56:33.867Z,2.00
2018-12-17T11:59:03.042Z,2.65
2018-12-17T12:01:32.315Z,2.30
2018-12-17T12:04:01.481Z,2.72
2018-12-17T12:06:30.764Z,1.72
2018-12-17T12:08:59.918Z,2.58
2018-12-17T12:11:29.118Z,2.00
2018-12-17T12:13:58.383Z,2.35
2018-12-17T12:16:27.542Z,2.90
2018-12-17T12:19:03.309Z,2.10
2018-12-17T12:21:32.563Z,2.25
2018-12-17T12:24:01.758Z,3.12
2018-12-17T12:26:30.941Z,2.47
2018-12-17T12:29:00.177Z,2.50
2018-12-17T12:31:29.360Z,2.37
2018-12-17T12:33:58.556Z,2.77
2018-12-17T12:36:27.774Z,2.65
2018-12-17T12:38:56.954Z,2.85
2018-12-17T12:41:26.114Z,3.20
2018-12-17T12:43:55.304Z,2.65
2018-12-17T12:46:24.475Z,2.80
2018-12-17T12:48:54.367Z,3.45
2018-12-17T12:51:23.526Z,3.08
2018-12-17T12:53:52.711Z,2.58
2018-12-17T12:56:21.911Z,3.27
2018-12-17T12:58:51.086Z,2.50
2018-12-17T13:01:20.238Z,2.60
2018-12-17T13:03:49.422Z,3.10
2018-12-17T13:06:18.739Z,2.98
2018-12-17T13:08:47.964Z,3.60
2018-12-17T13:11:17.159Z,3.08
2018-12-17T13:13:46.384Z,3.27
2018-12-17T13:16:15.562Z,2.90
2018-12-17T13:18:44.833Z,3.15
2018-12-17T13:21:14.012Z,3.33
2018-12-17T13:23:43.221Z,2.95
2018-12-17T13:26:12.401Z,2.55
2018-12-17T13:28:41.720Z,3.22
2018-12-17T13:31:14.650Z,3.22
2018-12-17T13:33:42.114Z,3.37
2018-12-17T13:36:11.975Z,3.12
2018-12-17T13:38:41.237Z,3.10
2018-12-17T13:41:10.527Z,3.45
2018-12-17T13:43:39.799Z,2.92
2018-12-17T13:46:08.975Z,2.75
2018-12-17T13:48:38.218Z,3.10
2018-12-17T13:51:12.778Z,3.60
2018-12-17T13:53:41.994Z,3.05
2018-12-17T13:56:11.169Z,3.30
2018-12-17T13:58:40.427Z,3.75
2018-12-17T14:01:09.609Z,4.33
2018-12-17T14:03:38.878Z,4.00
2018-12-17T14:06:08.187Z,3.77
2018-12-17T14:08:37.472Z,4.42
2018-12-17T14:11:06.671Z,4.05
2018-12-17T14:13:35.990Z,4.22
2018-12-17T14:16:10.587Z,3.77
2018-12-17T14:18:45.229Z,3.65
2018-12-17T14:21:19.758Z,4.55
2018-12-17T14:23:49.162Z,4.03
2018-12-17T14:26:18.568Z,4.05
2018-12-17T14:28:47.771Z,4.33
2018-12-17T14:31:16.953Z,4.33
2018-12-17T14:33:46.413Z,4.75
2018-12-17T14:36:15.631Z,4.50
2018-12-17T14:38:44.902Z,4.10
2018-12-17T14:41:14.189Z,4.92
2018-12-17T14:43:43.468Z,4.75
2018-12-17T14:46:12.692Z,4.37
2018-12-17T14:48:41.898Z,4.00
2018-12-17T14:51:11.277Z,4.60
2018-12-17T14:53:40.559Z,4.45
2018-12-17T14:56:09.830Z,5.97
2018-12-17T14:58:44.455Z,5.10
2018-12-17T15:01:10.398Z,5.12
2018-12-17T15:03:39.597Z,5.58
2018-12-17T15:06:08.902Z,5.47
2018-12-17T15:08:38.114Z,6.12
2018-12-17T15:11:07.290Z,5.20
2018-12-17T15:13:36.642Z,6.42
2018-12-17T15:16:06.025Z,6.30
2018-12-17T15:18:35.329Z,6.72
2018-12-17T15:21:04.600Z,6.80
2018-12-17T15:23:33.858Z,6.87
2018-12-17T15:26:03.044Z,7.95
2018-12-17T15:28:32.391Z,7.60
2018-12-17T15:31:01.587Z,8.63
2018-12-17T15:33:30.802Z,5.70
2018-12-17T15:36:00.072Z,8.15
2018-12-17T15:38:29.282Z,8.20
2018-12-17T15:40:58.551Z,6.62
2018-12-17T15:43:27.783Z,7.55
2018-12-17T15:45:56.984Z,8.78
2018-12-17T15:48:26.239Z,8.70
2018-12-17T15:50:55.474Z,8.08
2018-12-17T15:53:24.686Z,7.62
2018-12-17T15:55:53.860Z,7.62
2018-12-17T15:58:23.093Z,7.78
2018-12-17T16:00:52.310Z,7.28
2018-12-17T16:03:21.579Z,8.00
2018-12-17T16:05:50.842Z,7.55
2018-12-17T16:08:20.037Z,8.00
2018-12-17T16:10:49.302Z,7.95
2018-12-17T16:13:18.536Z,7.80
2018-12-17T16:15:47.707Z,8.33
2018-12-17T16:18:16.956Z,8.00
2018-12-17T16:20:46.295Z,8.58
2018-12-17T16:23:15.484Z,8.15
2018-12-17T16:25:44.695Z,8.90
2018-12-17T16:28:13.961Z,9.18
2018-12-17T16:30:43.276Z,8.63
2018-12-17T16:33:12.710Z,7.28
2018-12-17T16:35:41.903Z,11.18
2018-12-17T16:38:11.069Z,8.80
2018-12-17T16:40:40.280Z,8.80
2018-12-17T16:43:09.500Z,10.35
2018-12-17T16:45:38.701Z,9.78
2018-12-17T16:48:08.085Z,9.73
2018-12-17T16:50:37.314Z,10.50
2018-12-17T16:53:06.526Z,10.48
2018-12-17T16:55:35.737Z,10.43
2018-12-17T16:58:04.989Z,10.68
2018-12-17T17:00:34.202Z,9.33
2018-12-17T17:03:03.393Z,10.00
2018-12-17T17:05:32.620Z,10.88
2018-12-17T17:08:01.802Z,10.18
2018-12-17T17:10:31.238Z,10.03
2018-12-17T17:13:00.491Z,9.20
2018-12-17T17:15:29.813Z,10.38
2018-12-17T17:17:58.997Z,10.60
2018-12-17T17:20:28.289Z,10.58
2018-12-17T17:22:57.487Z,11.45
2018-12-17T17:25:26.671Z,11.22
2018-12-17T17:27:55.839Z,11.97
2018-12-17T17:30:25.001Z,12.15
2018-12-17T17:32:54.182Z,11.85
2018-12-17T17:35:23.457Z,10.98
2018-12-17T17:37:52.635Z,11.55
2018-12-17T17:40:21.882Z,12.58
2018-12-17T17:42:51.990Z,11.83
2018-12-17T17:45:21.216Z,10.82
2018-12-17T17:47:50.584Z,12.73
2018-12-17T17:50:19.790Z,13.10
2018-12-17T17:52:49.010Z,12.50
2018-12-17T17:55:19.326Z,11.80
2018-12-17T17:57:48.534Z,12.98
2018-12-17T18:00:17.969Z,11.43
2018-12-17T18:02:47.147Z,13.25
2018-12-17T18:05:16.451Z,10.63
2018-12-17T18:07:45.733Z,11.83
2018-12-17T18:10:14.957Z,11.50
2018-12-17T18:12:44.158Z,11.48
2018-12-17T18:15:13.373Z,11.70
2018-12-17T18:17:42.556Z,13.18
2018-12-17T18:20:11.760Z,12.63
2018-12-17T18:22:40.942Z,12.93
2018-12-17T18:25:10.227Z,11.85
2018-12-17T18:27:39.391Z,12.07
2018-12-17T18:30:08.848Z,12.80
2018-12-17T18:33:41.598Z,12.50
2018-12-17T18:36:10.778Z,12.80
2018-12-17T18:38:39.994Z,11.57
2018-12-17T18:41:09.183Z,11.95
2018-12-17T18:43:38.362Z,12.15
2018-12-17T18:46:07.550Z,10.60
2018-12-17T18:48:36.695Z,9.55
2018-12-17T18:51:05.971Z,10.72
2018-12-17T18:53:35.139Z,11.08
2018-12-17T18:56:04.524Z,10.18
2018-12-17T18:58:35.123Z,11.38
2018-12-17T19:01:04.782Z,10.63
2018-12-17T19:03:33.966Z,10.85
2018-12-17T19:06:03.225Z,10.58
2018-12-17T19:08:32.410Z,9.65
2018-12-17T19:11:01.597Z,9.73
2018-12-17T19:13:30.842Z,10.50
2018-12-17T19:16:00.051Z,10.68
2018-12-17T19:18:29.203Z,9.75
2018-12-17T19:20:58.378Z,9.98
2018-12-17T19:23:27.531Z,9.88
2018-12-17T19:25:56.694Z,9.58
2018-12-17T19:28:25.854Z,10.23
2018-12-17T19:30:55.056Z,8.28
2018-12-17T19:33:24.215Z,9.43
2018-12-17T19:35:53.494Z,9.85
2018-12-17T19:38:22.778Z,10.20
2018-12-17T19:40:51.962Z,9.70
2018-12-17T19:43:21.123Z,9.18
2018-12-17T19:45:50.308Z,10.00
2018-12-17T19:48:19.490Z,9.53
2018-12-17T19:50:48.670Z,9.13
2018-12-17T19:53:17.830Z,9.60
2018-12-17T19:55:47.095Z,8.55
2018-12-17T19:58:16.258Z,9.70
2018-12-17T20:00:45.447Z,9.33
2018-12-17T20:03:14.735Z,10.70
2018-12-17T20:05:43.931Z,10.35
2018-12-17T20:08:13.110Z,9.15
2018-12-17T20:10:42.378Z,9.25
2018-12-17T20:13:11.583Z,8.98
2018-12-17T20:15:40.876Z,9.63
2018-12-17T20:18:10.145Z,10.28
2018-12-17T20:20:39.327Z,10.05
2018-12-17T20:23:08.498Z,11.22
2018-12-17T20:25:37.690Z,9.93
2018-12-17T20:28:06.855Z,9.30
2018-12-17T20:30:36.390Z,9.68
2018-12-17T20:33:05.747Z,10.03
2018-12-17T20:35:34.923Z,9.70
2018-12-17T20:38:04.530Z,9.53
2018-12-17T20:40:33.802Z,8.18
2018-12-17T20:43:02.977Z,10.18
2018-12-17T20:45:35.169Z,9.33
2018-12-17T20:48:04.350Z,8.75
2018-12-17T20:50:33.547Z,8.93
2018-12-17T20:53:02.754Z,10.03
2018-12-17T20:55:32.052Z,10.03
2018-12-17T20:58:01.218Z,9.08
2018-12-17T21:00:30.491Z,9.23
2018-12-17T21:03:00.356Z,8.45
2018-12-17T21:05:29.979Z,8.35
2018-12-17T21:07:59.180Z,9.28
2018-12-17T21:10:28.450Z,8.43
2018-12-17T21:12:57.650Z,8.30
2018-12-17T21:15:27.046Z,8.70
2018-12-17T21:17:56.243Z,8.83
2018-12-17T21:20:25.495Z,8.88
2018-12-17T21:22:54.679Z,8.98
2018-12-17T21:25:23.859Z,9.13
2018-12-17T21:27:53.063Z,9.13
2018-12-17T21:30:22.338Z,8.80
2018-12-17T21:32:51.751Z,8.48
2018-12-17T21:35:20.907Z,9.18
2018-12-17T21:37:50.105Z,9.28
2018-12-17T21:40:19.271Z,8.43
2018-12-17T21:42:48.453Z,8.90
2018-12-17T21:45:17.607Z,9.45
2018-12-17T21:47:46.783Z,9.48
2018-12-17T21:50:15.938Z,9.65
2018-12-17T21:52:45.110Z,9.10
2018-12-17T21:55:14.263Z,9.28
2018-12-17T21:57:43.439Z,9.88
2018-12-17T22:00:12.878Z,9.05
2018-12-17T22:02:42.053Z,8.43
2018-12-17T22:05:11.203Z,8.68
2018-12-17T22:07:40.385Z,8.73
2018-12-17T22:10:11.899Z,8.73
2018-12-17T22:12:41.070Z,9.00
2018-12-17T22:15:10.337Z,9.33
2018-12-17T22:17:39.510Z,8.58
2018-12-17T22:20:08.762Z,9.60
2018-12-17T22:22:38.026Z,9.20
2018-12-17T22:25:07.458Z,9.18
2018-12-17T22:27:36.727Z,9.40
2018-12-17T22:30:07.046Z,10.15
2018-12-17T22:32:36.216Z,9.95
2018-12-17T22:35:05.650Z,9.85
2018-12-17T22:37:34.823Z,9.75
2018-12-17T22:40:04.951Z,9.15
2018-12-17T22:42:34.212Z,9.90
2018-12-17T22:45:03.534Z,9.98
2018-12-17T22:47:32.812Z,10.32
2018-12-17T22:50:02.098Z,10.32
2018-12-17T22:52:31.266Z,11.05
2018-12-17T22:55:00.422Z,10.82
2018-12-17T22:57:29.598Z,10.15
2018-12-17T22:59:58.898Z,10.00
2018-12-17T23:02:28.086Z,11.03
2018-12-17T23:04:57.333Z,11.28
2018-12-17T23:07:26.614Z,10.90
2018-12-17T23:10:12.909Z,10.60
2018-12-17T23:12:59.266Z,11.00
2018-12-17T23:15:45.630Z,11.10
2018-12-17T23:18:14.385Z,11.50
2018-12-17T23:20:44.310Z,11.25
2018-12-17T23:23:13.866Z,10.98
2018-12-17T23:25:43.115Z,11.68
2018-12-17T23:28:12.287Z,11.60
2018-12-17T23:30:41.626Z,11.45
2018-12-17T23:33:10.902Z,11.55
2018-12-17T23:35:40.950Z,11.38
2018-12-17T23:38:10.126Z,11.73
2018-12-17T23:40:39.566Z,10.58
2018-12-17T23:43:08.937Z,11.12
2018-12-17T23:45:44.910Z,11.12
2018-12-17T23:48:14.091Z,11.83
2018-12-17T23:50:44.542Z,11.33
2018-12-17T23:53:13.722Z,11.40
2018-12-17T23:55:42.944Z,10.43
2018-12-17T23:58:12.334Z,11.10
